sensor_id;sensor_type;location;lat;lon;timestamp;P1;durP1;ratioP1;P2;durP2;ratioP2
25846;SDS011;13676;50.168;8.568;2022-12-18T00:01:39;57.65;;;23.55;;
25846;SDS011;13676;50.168;8.568;2022-12-18T00:04:05;54.92;;;25.27;;
25846;SDS011;13676;50.168;8.568;2022-12-18T00:06:31;54.85;;;24.38;;
25846;SDS011;13676;50.168;8.568;2022-12-18T00:08:58;56.47;;;27.27;;
25846;SDS011;13676;50.168;8.568;2022-12-18T00:11:25;51.38;;;23.00;;
25846;SDS011;13676;50.168;8.568;2022-12-18T00:13:53;56.22;;;24.08;;
25846;SDS011;13676;50.168;8.568;2022-12-18T00:16:21;55.42;;;24.63;;
25846;SDS011;13676;50.168;8.568;2022-12-18T00:18:47;54.63;;;25.45;;
25846;SDS011;13676;50.168;8.568;2022-12-18T00:21:14;60.47;;;25.50;;
25846;SDS011;13676;50.168;8.568;2022-12-18T00:23:40;49.83;;;22.67;;
25846;SDS011;13676;50.168;8.568;2022-12-18T00:26:08;55.15;;;23.90;;
25846;SDS011;13676;50.168;8.568;2022-12-18T00:28:45;57.95;;;24.52;;
25846;SDS011;13676;50.168;8.568;2022-12-18T00:31:12;53.80;;;23.45;;
25846;SDS011;13676;50.168;8.568;2022-12-18T00:33:39;51.85;;;23.00;;
25846;SDS011;13676;50.168;8.568;2022-12-18T00:36:04;51.47;;;24.02;;
25846;SDS011;13676;50.168;8.568;2022-12-18T00:38:31;51.30;;;23.08;;
25846;SDS011;13676;50.168;8.568;2022-12-18T00:40:57;57.72;;;24.98;;
25846;SDS011;13676;50.168;8.568;2022-12-18T00:43:26;56.15;;;23.92;;
25846;SDS011;13676;50.168;8.568;2022-12-18T00:45:51;61.10;;;27.30;;
25846;SDS011;13676;50.168;8.568;2022-12-18T00:48:16;52.70;;;23.52;;
25846;SDS011;13676;50.168;8.568;2022-12-18T00:50:42;53.92;;;25.70;;
25846;SDS011;13676;50.168;8.568;2022-12-18T00:53:11;52.70;;;23.23;;
25846;SDS011;13676;50.168;8.568;2022-12-18T00:55:40;54.20;;;24.33;;
25846;SDS011;13676;50.168;8.568;2022-12-18T00:58:06;49.58;;;21.85;;
25846;SDS011;13676;50.168;8.568;2022-12-18T01:00:31;50.80;;;23.15;;
25846;SDS011;13676;50.168;8.568;2022-12-18T01:02:57;51.22;;;21.67;;
25846;SDS011;13676;50.168;8.568;2022-12-18T01:05:22;51.78;;;22.73;;
25846;SDS011;13676;50.168;8.568;2022-12-18T01:07:47;45.63;;;21.42;;
25846;SDS011;13676;50.168;8.568;2022-12-18T01:10:13;49.75;;;23.08;;
25846;SDS011;13676;50.168;8.568;2022-12-18T01:12:38;49.95;;;22.75;;
25846;SDS011;13676;50.168;8.568;2022-12-18T01:15:05;48.28;;;22.08;;
25846;SDS011;13676;50.168;8.568;2022-12-18T01:17:31;48.05;;;20.58;;
25846;SDS011;13676;50.168;8.568;2022-12-18T01:19:57;47.50;;;20.52;;
25846;SDS011;13676;50.168;8.568;2022-12-18T01:22:22;49.17;;;21.27;;
25846;SDS011;13676;50.168;8.568;2022-12-18T01:24:48;50.47;;;21.85;;
25846;SDS011;13676;50.168;8.568;2022-12-18T01:27:13;54.15;;;23.48;;
25846;SDS011;13676;50.168;8.568;2022-12-18T01:29:38;55.97;;;22.27;;
25846;SDS011;13676;50.168;8.568;2022-12-18T01:32:04;45.90;;;21.08;;
25846;SDS011;13676;50.168;8.568;2022-12-18T01:34:29;50.47;;;20.20;;
25846;SDS011;13676;50.168;8.568;2022-12-18T01:36:54;50.58;;;20.95;;
25846;SDS011;13676;50.168;8.568;2022-12-18T01:39:20;40.60;;;19.23;;
25846;SDS011;13676;50.168;8.568;2022-12-18T01:41:45;41.13;;;20.17;;
25846;SDS011;13676;50.168;8.568;2022-12-18T01:47:48;45.67;;;19.70;;
25846;SDS011;13676;50.168;8.568;2022-12-18T01:52:50;41.50;;;19.20;;
25846;SDS011;13676;50.168;8.568;2022-12-18T01:55:17;37.15;;;18.05;;
25846;SDS011;13676;50.168;8.568;2022-12-18T01:57:43;42.92;;;19.02;;
25846;SDS011;13676;50.168;8.568;2022-12-18T02:00:19;38.33;;;18.60;;
25846;SDS011;13676;50.168;8.568;2022-12-18T02:02:45;41.05;;;17.80;;
25846;SDS011;13676;50.168;8.568;2022-12-18T02:05:11;37.15;;;16.83;;
25846;SDS011;13676;50.168;8.568;2022-12-18T02:07:43;40.28;;;18.73;;
25846;SDS011;13676;50.168;8.568;2022-12-18T02:15:19;38.17;;;17.73;;
25846;SDS011;13676;50.168;8.568;2022-12-18T02:18:28;42.67;;;17.58;;
25846;SDS011;13676;50.168;8.568;2022-12-18T02:24:11;31.85;;;14.73;;
25846;SDS011;13676;50.168;8.568;2022-12-18T02:26:50;35.88;;;16.00;;
25846;SDS011;13676;50.168;8.568;2022-12-18T02:29:16;39.88;;;18.33;;
25846;SDS011;13676;50.168;8.568;2022-12-18T02:31:54;37.20;;;18.52;;
25846;SDS011;13676;50.168;8.568;2022-12-18T02:34:26;34.17;;;16.42;;
25846;SDS011;13676;50.168;8.568;2022-12-18T02:36:54;38.90;;;17.40;;
25846;SDS011;13676;50.168;8.568;2022-12-18T02:39:20;39.90;;;17.27;;
25846;SDS011;13676;50.168;8.568;2022-12-18T02:41:46;37.28;;;18.58;;
25846;SDS011;13676;50.168;8.568;2022-12-18T02:44:13;40.40;;;18.08;;
25846;SDS011;13676;50.168;8.568;2022-12-18T02:46:42;39.72;;;18.83;;
25846;SDS011;13676;50.168;8.568;2022-12-18T02:57:24;40.92;;;20.52;;
25846;SDS011;13676;50.168;8.568;2022-12-18T03:00:10;36.33;;;17.90;;
25846;SDS011;13676;50.168;8.568;2022-12-18T03:05:22;40.53;;;17.92;;
25846;SDS011;13676;50.168;8.568;2022-12-18T03:07:58;37.38;;;18.67;;
25846;SDS011;13676;50.168;8.568;2022-12-18T03:10:31;37.33;;;17.92;;
25846;SDS011;13676;50.168;8.568;2022-12-18T03:13:00;36.53;;;17.40;;
25846;SDS011;13676;50.168;8.568;2022-12-18T03:15:30;39.60;;;18.88;;
25846;SDS011;13676;50.168;8.568;2022-12-18T03:18:00;37.25;;;18.15;;
25846;SDS011;13676;50.168;8.568;2022-12-18T03:20:28;34.30;;;17.60;;
25846;SDS011;13676;50.168;8.568;2022-12-18T03:22:57;38.25;;;15.88;;
25846;SDS011;13676;50.168;8.568;2022-12-18T03:25:27;35.15;;;16.52;;
25846;SDS011;13676;50.168;8.568;2022-12-18T03:27:54;40.42;;;16.98;;
25846;SDS011;13676;50.168;8.568;2022-12-18T03:30:21;34.72;;;18.42;;
25846;SDS011;13676;50.168;8.568;2022-12-18T03:32:52;42.30;;;18.92;;
25846;SDS011;13676;50.168;8.568;2022-12-18T03:35:26;34.05;;;16.60;;
25846;SDS011;13676;50.168;8.568;2022-12-18T03:37:52;35.65;;;18.65;;
25846;SDS011;13676;50.168;8.568;2022-12-18T03:40:19;36.22;;;16.95;;
25846;SDS011;13676;50.168;8.568;2022-12-18T03:42:48;33.70;;;16.67;;
25846;SDS011;13676;50.168;8.568;2022-12-18T03:45:24;34.92;;;17.90;;
25846;SDS011;13676;50.168;8.568;2022-12-18T03:47:59;32.70;;;16.85;;
25846;SDS011;13676;50.168;8.568;2022-12-18T03:50:41;38.47;;;18.30;;
25846;SDS011;13676;50.168;8.568;2022-12-18T03:55:59;35.63;;;18.30;;
25846;SDS011;13676;50.168;8.568;2022-12-18T03:58:25;40.60;;;18.88;;
25846;SDS011;13676;50.168;8.568;2022-12-18T04:00:52;38.58;;;18.10;;
25846;SDS011;13676;50.168;8.568;2022-12-18T04:03:18;44.45;;;19.95;;
25846;SDS011;13676;50.168;8.568;2022-12-18T04:05:46;37.08;;;18.35;;
25846;SDS011;13676;50.168;8.568;2022-12-18T04:08:13;33.10;;;16.88;;
25846;SDS011;13676;50.168;8.568;2022-12-18T04:10:38;31.40;;;16.48;;
25846;SDS011;13676;50.168;8.568;2022-12-18T04:13:04;37.88;;;17.25;;
25846;SDS011;13676;50.168;8.568;2022-12-18T04:15:29;37.38;;;17.20;;
25846;SDS011;13676;50.168;8.568;2022-12-18T04:17:54;37.05;;;16.98;;
25846;SDS011;13676;50.168;8.568;2022-12-18T04:20:20;39.00;;;16.95;;
25846;SDS011;13676;50.168;8.568;2022-12-18T04:22:45;31.85;;;16.52;;
25846;SDS011;13676;50.168;8.568;2022-12-18T04:25:10;27.83;;;14.30;;
25846;SDS011;13676;50.168;8.568;2022-12-18T04:27:36;37.22;;;17.35;;
25846;SDS011;13676;50.168;8.568;2022-12-18T04:30:01;32.10;;;15.40;;
25846;SDS011;13676;50.168;8.568;2022-12-18T04:32:26;34.97;;;17.65;;
25846;SDS011;13676;50.168;8.568;2022-12-18T04:34:52;44.58;;;19.83;;
25846;SDS011;13676;50.168;8.568;2022-12-18T04:37:17;37.78;;;19.27;;
25846;SDS011;13676;50.168;8.568;2022-12-18T04:39:42;31.75;;;16.83;;
25846;SDS011;13676;50.168;8.568;2022-12-18T04:42:08;36.45;;;17.00;;
25846;SDS011;13676;50.168;8.568;2022-12-18T04:44:33;36.97;;;17.92;;
25846;SDS011;13676;50.168;8.568;2022-12-18T04:46:59;36.83;;;18.13;;
25846;SDS011;13676;50.168;8.568;2022-12-18T04:49:24;37.42;;;18.70;;
25846;SDS011;13676;50.168;8.568;2022-12-18T04:51:50;36.22;;;17.05;;
25846;SDS011;13676;50.168;8.568;2022-12-18T04:54:15;37.50;;;17.13;;
25846;SDS011;13676;50.168;8.568;2022-12-18T04:56:40;37.67;;;18.77;;
25846;SDS011;13676;50.168;8.568;2022-12-18T04:59:06;43.20;;;20.15;;
25846;SDS011;13676;50.168;8.568;2022-12-18T05:01:34;40.25;;;19.70;;
25846;SDS011;13676;50.168;8.568;2022-12-18T05:03:59;41.75;;;19.73;;
25846;SDS011;13676;50.168;8.568;2022-12-18T05:06:25;41.50;;;19.38;;
25846;SDS011;13676;50.168;8.568;2022-12-18T05:08:50;39.40;;;17.73;;
25846;SDS011;13676;50.168;8.568;2022-12-18T05:11:16;37.45;;;19.02;;
25846;SDS011;13676;50.168;8.568;2022-12-18T05:13:42;42.20;;;19.98;;
25846;SDS011;13676;50.168;8.568;2022-12-18T05:16:08;39.42;;;19.38;;
25846;SDS011;13676;50.168;8.568;2022-12-18T05:18:34;39.60;;;18.10;;
25846;SDS011;13676;50.168;8.568;2022-12-18T05:20:59;36.58;;;18.48;;
25846;SDS011;13676;50.168;8.568;2022-12-18T05:23:25;39.03;;;17.90;;
25846;SDS011;13676;50.168;8.568;2022-12-18T05:25:57;38.30;;;18.95;;
25846;SDS011;13676;50.168;8.568;2022-12-18T05:28:25;40.20;;;19.92;;
25846;SDS011;13676;50.168;8.568;2022-12-18T05:30:51;44.03;;;19.02;;
25846;SDS011;13676;50.168;8.568;2022-12-18T05:33:18;45.83;;;20.07;;
25846;SDS011;13676;50.168;8.568;2022-12-18T05:35:44;35.35;;;17.83;;
25846;SDS011;13676;50.168;8.568;2022-12-18T05:38:09;35.45;;;17.77;;
25846;SDS011;13676;50.168;8.568;2022-12-18T05:40:35;42.42;;;19.33;;
25846;SDS011;13676;50.168;8.568;2022-12-18T05:43:04;38.67;;;19.42;;
25846;SDS011;13676;50.168;8.568;2022-12-18T05:45:29;46.33;;;21.63;;
25846;SDS011;13676;50.168;8.568;2022-12-18T05:47:55;42.35;;;20.42;;
25846;SDS011;13676;50.168;8.568;2022-12-18T05:50:20;36.97;;;19.40;;
25846;SDS011;13676;50.168;8.568;2022-12-18T05:52:46;44.05;;;20.67;;
25846;SDS011;13676;50.168;8.568;2022-12-18T05:55:11;40.85;;;19.92;;
25846;SDS011;13676;50.168;8.568;2022-12-18T05:57:37;40.42;;;20.30;;
25846;SDS011;13676;50.168;8.568;2022-12-18T06:00:02;40.53;;;20.27;;
25846;SDS011;13676;50.168;8.568;2022-12-18T06:02:28;50.88;;;22.42;;
25846;SDS011;13676;50.168;8.568;2022-12-18T06:04:53;54.28;;;24.33;;
25846;SDS011;13676;50.168;8.568;2022-12-18T06:07:19;49.95;;;23.67;;
25846;SDS011;13676;50.168;8.568;2022-12-18T06:09:44;53.35;;;24.92;;
25846;SDS011;13676;50.168;8.568;2022-12-18T06:12:09;53.38;;;25.23;;
25846;SDS011;13676;50.168;8.568;2022-12-18T06:14:35;53.38;;;24.17;;
25846;SDS011;13676;50.168;8.568;2022-12-18T06:17:00;51.55;;;24.35;;
25846;SDS011;13676;50.168;8.568;2022-12-18T06:19:26;53.15;;;25.00;;
25846;SDS011;13676;50.168;8.568;2022-12-18T06:21:51;49.63;;;23.40;;
25846;SDS011;13676;50.168;8.568;2022-12-18T06:24:16;47.45;;;23.27;;
25846;SDS011;13676;50.168;8.568;2022-12-18T06:26:42;50.90;;;26.23;;
25846;SDS011;13676;50.168;8.568;2022-12-18T06:29:07;47.08;;;23.50;;
25846;SDS011;13676;50.168;8.568;2022-12-18T06:31:32;52.03;;;24.45;;
25846;SDS011;13676;50.168;8.568;2022-12-18T06:33:58;54.60;;;25.70;;
25846;SDS011;13676;50.168;8.568;2022-12-18T06:36:23;50.05;;;23.30;;
25846;SDS011;13676;50.168;8.568;2022-12-18T06:38:49;47.20;;;22.35;;
25846;SDS011;13676;50.168;8.568;2022-12-18T06:41:15;48.47;;;22.67;;
25846;SDS011;13676;50.168;8.568;2022-12-18T06:43:42;45.58;;;21.52;;
25846;SDS011;13676;50.168;8.568;2022-12-18T06:46:08;50.15;;;23.70;;
25846;SDS011;13676;50.168;8.568;2022-12-18T06:48:34;49.13;;;22.98;;
25846;SDS011;13676;50.168;8.568;2022-12-18T06:51:00;46.95;;;21.63;;
25846;SDS011;13676;50.168;8.568;2022-12-18T06:53:25;38.17;;;20.23;;
25846;SDS011;13676;50.168;8.568;2022-12-18T06:55:51;40.00;;;19.85;;
25846;SDS011;13676;50.168;8.568;2022-12-18T06:58:16;49.13;;;24.00;;
25846;SDS011;13676;50.168;8.568;2022-12-18T07:00:42;53.63;;;25.63;;
25846;SDS011;13676;50.168;8.568;2022-12-18T07:03:07;53.60;;;23.95;;
25846;SDS011;13676;50.168;8.568;2022-12-18T07:05:33;48.85;;;23.50;;
25846;SDS011;13676;50.168;8.568;2022-12-18T07:07:58;46.08;;;22.95;;
25846;SDS011;13676;50.168;8.568;2022-12-18T07:10:24;48.50;;;23.08;;
25846;SDS011;13676;50.168;8.568;2022-12-18T07:12:49;43.05;;;21.92;;
25846;SDS011;13676;50.168;8.568;2022-12-18T07:15:15;51.03;;;24.15;;
25846;SDS011;13676;50.168;8.568;2022-12-18T07:17:40;46.28;;;23.30;;
25846;SDS011;13676;50.168;8.568;2022-12-18T07:20:05;46.42;;;23.70;;
25846;SDS011;13676;50.168;8.568;2022-12-18T07:22:31;46.95;;;23.58;;
25846;SDS011;13676;50.168;8.568;2022-12-18T07:24:56;48.88;;;22.58;;
25846;SDS011;13676;50.168;8.568;2022-12-18T07:27:22;51.17;;;24.80;;
25846;SDS011;13676;50.168;8.568;2022-12-18T07:29:47;50.83;;;24.77;;
25846;SDS011;13676;50.168;8.568;2022-12-18T07:32:13;52.50;;;23.88;;
25846;SDS011;13676;50.168;8.568;2022-12-18T07:34:38;47.30;;;22.58;;
25846;SDS011;13676;50.168;8.568;2022-12-18T07:37:03;43.70;;;23.08;;
25846;SDS011;13676;50.168;8.568;2022-12-18T07:39:29;51.30;;;24.38;;
25846;SDS011;13676;50.168;8.568;2022-12-18T07:41:54;44.72;;;22.15;;
25846;SDS011;13676;50.168;8.568;2022-12-18T07:44:38;47.15;;;24.70;;
25846;SDS011;13676;50.168;8.568;2022-12-18T07:47:04;49.35;;;23.38;;
25846;SDS011;13676;50.168;8.568;2022-12-18T07:49:29;53.70;;;22.33;;
25846;SDS011;13676;50.168;8.568;2022-12-18T07:51:55;50.65;;;24.23;;
25846;SDS011;13676;50.168;8.568;2022-12-18T07:54:21;51.28;;;24.95;;
25846;SDS011;13676;50.168;8.568;2022-12-18T07:56:47;46.83;;;22.95;;
25846;SDS011;13676;50.168;8.568;2022-12-18T07:59:13;45.83;;;23.67;;
25846;SDS011;13676;50.168;8.568;2022-12-18T08:01:38;51.63;;;24.98;;
25846;SDS011;13676;50.168;8.568;2022-12-18T08:04:03;49.60;;;24.00;;
25846;SDS011;13676;50.168;8.568;2022-12-18T08:06:29;49.95;;;24.20;;
25846;SDS011;13676;50.168;8.568;2022-12-18T08:08:55;48.05;;;23.92;;
25846;SDS011;13676;50.168;8.568;2022-12-18T08:11:21;53.80;;;25.50;;
25846;SDS011;13676;50.168;8.568;2022-12-18T08:13:47;60.83;;;26.23;;
25846;SDS011;13676;50.168;8.568;2022-12-18T08:16:12;50.05;;;24.65;;
25846;SDS011;13676;50.168;8.568;2022-12-18T08:18:38;46.47;;;24.17;;
25846;SDS011;13676;50.168;8.568;2022-12-18T08:21:13;42.67;;;22.17;;
25846;SDS011;13676;50.168;8.568;2022-12-18T08:23:43;44.88;;;22.05;;
25846;SDS011;13676;50.168;8.568;2022-12-18T08:26:12;45.30;;;22.88;;
25846;SDS011;13676;50.168;8.568;2022-12-18T08:28:38;45.40;;;22.27;;
25846;SDS011;13676;50.168;8.568;2022-12-18T08:31:04;45.20;;;24.17;;
25846;SDS011;13676;50.168;8.568;2022-12-18T08:33:30;48.22;;;26.23;;
25846;SDS011;13676;50.168;8.568;2022-12-18T08:35:55;47.75;;;24.02;;
25846;SDS011;13676;50.168;8.568;2022-12-18T08:38:21;48.17;;;25.65;;
25846;SDS011;13676;50.168;8.568;2022-12-18T08:40:47;44.42;;;22.42;;
25846;SDS011;13676;50.168;8.568;2022-12-18T08:43:13;50.72;;;24.05;;
25846;SDS011;13676;50.168;8.568;2022-12-18T08:45:57;49.67;;;24.38;;
25846;SDS011;13676;50.168;8.568;2022-12-18T08:48:22;45.05;;;22.77;;
25846;SDS011;13676;50.168;8.568;2022-12-18T08:50:54;44.38;;;23.05;;
25846;SDS011;13676;50.168;8.568;2022-12-18T08:53:20;50.92;;;25.00;;
25846;SDS011;13676;50.168;8.568;2022-12-18T08:55:46;54.67;;;27.48;;
25846;SDS011;13676;50.168;8.568;2022-12-18T08:58:11;51.85;;;24.33;;
25846;SDS011;13676;50.168;8.568;2022-12-18T09:00:36;48.13;;;24.70;;
25846;SDS011;13676;50.168;8.568;2022-12-18T09:03:02;39.70;;;22.17;;
25846;SDS011;13676;50.168;8.568;2022-12-18T09:05:27;50.08;;;24.30;;
25846;SDS011;13676;50.168;8.568;2022-12-18T09:07:52;46.75;;;23.13;;
25846;SDS011;13676;50.168;8.568;2022-12-18T09:10:18;49.88;;;25.00;;
25846;SDS011;13676;50.168;8.568;2022-12-18T09:12:43;45.03;;;22.33;;
25846;SDS011;13676;50.168;8.568;2022-12-18T09:15:08;42.00;;;21.83;;
25846;SDS011;13676;50.168;8.568;2022-12-18T09:17:34;45.15;;;21.95;;
25846;SDS011;13676;50.168;8.568;2022-12-18T09:19:59;44.08;;;21.98;;
25846;SDS011;13676;50.168;8.568;2022-12-18T09:22:25;44.50;;;20.42;;
25846;SDS011;13676;50.168;8.568;2022-12-18T09:24:50;35.15;;;19.65;;
25846;SDS011;13676;50.168;8.568;2022-12-18T09:27:16;40.67;;;19.88;;
25846;SDS011;13676;50.168;8.568;2022-12-18T09:29:41;42.05;;;20.23;;
25846;SDS011;13676;50.168;8.568;2022-12-18T09:32:06;48.13;;;22.05;;
25846;SDS011;13676;50.168;8.568;2022-12-18T09:34:32;42.28;;;21.35;;
25846;SDS011;13676;50.168;8.568;2022-12-18T09:36:57;36.03;;;19.80;;
25846;SDS011;13676;50.168;8.568;2022-12-18T09:39:23;48.03;;;23.30;;
25846;SDS011;13676;50.168;8.568;2022-12-18T09:49:44;45.53;;;23.88;;
25846;SDS011;13676;50.168;8.568;2022-12-18T09:54:56;55.38;;;26.65;;
25846;SDS011;13676;50.168;8.568;2022-12-18T09:57:25;49.65;;;25.65;;
25846;SDS011;13676;50.168;8.568;2022-12-18T10:00:24;44.63;;;23.33;;
25846;SDS011;13676;50.168;8.568;2022-12-18T10:02:44;55.90;;;26.17;;
25846;SDS011;13676;50.168;8.568;2022-12-18T10:05:17;54.28;;;28.42;;
25846;SDS011;13676;50.168;8.568;2022-12-18T10:08:00;51.88;;;27.05;;
25846;SDS011;13676;50.168;8.568;2022-12-18T10:20:56;59.38;;;29.02;;
25846;SDS011;13676;50.168;8.568;2022-12-18T10:23:39;54.78;;;27.70;;
25846;SDS011;13676;50.168;8.568;2022-12-18T10:26:07;55.58;;;27.73;;
25846;SDS011;13676;50.168;8.568;2022-12-18T10:28:38;62.85;;;31.50;;
25846;SDS011;13676;50.168;8.568;2022-12-18T10:31:05;61.10;;;29.98;;
25846;SDS011;13676;50.168;8.568;2022-12-18T10:33:32;60.47;;;30.02;;
25846;SDS011;13676;50.168;8.568;2022-12-18T10:35:58;57.83;;;30.52;;
25846;SDS011;13676;50.168;8.568;2022-12-18T10:38:27;58.45;;;29.42;;
25846;SDS011;13676;50.168;8.568;2022-12-18T10:43:26;56.95;;;30.13;;
25846;SDS011;13676;50.168;8.568;2022-12-18T10:59:04;70.00;;;32.92;;
25846;SDS011;13676;50.168;8.568;2022-12-18T11:01:53;68.95;;;32.35;;
25846;SDS011;13676;50.168;8.568;2022-12-18T11:06:59;68.93;;;32.00;;
25846;SDS011;13676;50.168;8.568;2022-12-18T11:09:28;61.38;;;32.15;;
25846;SDS011;13676;50.168;8.568;2022-12-18T11:11:57;62.85;;;30.25;;
25846;SDS011;13676;50.168;8.568;2022-12-18T11:14:29;65.75;;;32.22;;
25846;SDS011;13676;50.168;8.568;2022-12-18T11:16:57;78.10;;;35.42;;
25846;SDS011;13676;50.168;8.568;2022-12-18T11:22:20;69.60;;;32.70;;
25846;SDS011;13676;50.168;8.568;2022-12-18T11:24:53;74.20;;;32.50;;
25846;SDS011;13676;50.168;8.568;2022-12-18T11:27:21;73.88;;;35.42;;
25846;SDS011;13676;50.168;8.568;2022-12-18T11:29:47;70.38;;;33.42;;
25846;SDS011;13676;50.168;8.568;2022-12-18T11:34:41;68.30;;;31.35;;
25846;SDS011;13676;50.168;8.568;2022-12-18T11:37:10;74.72;;;33.05;;
25846;SDS011;13676;50.168;8.568;2022-12-18T11:39:44;69.28;;;32.15;;
25846;SDS011;13676;50.168;8.568;2022-12-18T11:50:41;75.05;;;35.55;;
25846;SDS011;13676;50.168;8.568;2022-12-18T11:53:11;78.95;;;35.97;;
25846;SDS011;13676;50.168;8.568;2022-12-18T12:15:01;80.18;;;33.80;;
25846;SDS011;13676;50.168;8.568;2022-12-18T12:17:35;79.97;;;33.10;;
25846;SDS011;13676;50.168;8.568;2022-12-18T12:20:08;70.35;;;32.28;;
25846;SDS011;13676;50.168;8.568;2022-12-18T12:22:51;71.78;;;34.17;;
25846;SDS011;13676;50.168;8.568;2022-12-18T12:25:44;71.15;;;32.00;;
25846;SDS011;13676;50.168;8.568;2022-12-18T12:35:00;72.18;;;31.58;;
25846;SDS011;13676;50.168;8.568;2022-12-18T12:37:45;67.97;;;31.13;;
25846;SDS011;13676;50.168;8.568;2022-12-18T12:40:19;69.00;;;32.03;;
25846;SDS011;13676;50.168;8.568;2022-12-18T12:42:46;69.10;;;31.85;;
25846;SDS011;13676;50.168;8.568;2022-12-18T12:45:54;67.32;;;31.77;;
25846;SDS011;13676;50.168;8.568;2022-12-18T12:51:21;70.15;;;32.50;;
25846;SDS011;13676;50.168;8.568;2022-12-18T12:53:49;75.00;;;33.78;;
25846;SDS011;13676;50.168;8.568;2022-12-18T12:56:16;76.80;;;34.25;;
25846;SDS011;13676;50.168;8.568;2022-12-18T12:58:58;74.78;;;33.92;;
25846;SDS011;13676;50.168;8.568;2022-12-18T13:09:24;71.38;;;33.72;;
25846;SDS011;13676;50.168;8.568;2022-12-18T13:11:49;74.47;;;32.55;;
25846;SDS011;13676;50.168;8.568;2022-12-18T13:14:40;64.00;;;30.08;;
25846;SDS011;13676;50.168;8.568;2022-12-18T13:17:15;78.15;;;33.25;;
25846;SDS011;13676;50.168;8.568;2022-12-18T13:19:41;74.05;;;35.10;;
25846;SDS011;13676;50.168;8.568;2022-12-18T13:22:19;82.22;;;36.38;;
25846;SDS011;13676;50.168;8.568;2022-12-18T13:24:46;80.57;;;34.50;;
25846;SDS011;13676;50.168;8.568;2022-12-18T13:35:40;70.95;;;33.10;;
25846;SDS011;13676;50.168;8.568;2022-12-18T13:45:49;73.15;;;31.58;;
25846;SDS011;13676;50.168;8.568;2022-12-18T13:48:24;66.97;;;31.40;;
25846;SDS011;13676;50.168;8.568;2022-12-18T13:53:27;69.90;;;32.45;;
25846;SDS011;13676;50.168;8.568;2022-12-18T13:55:55;75.97;;;36.63;;
25846;SDS011;13676;50.168;8.568;2022-12-18T13:58:20;79.32;;;35.33;;
25846;SDS011;13676;50.168;8.568;2022-12-18T14:00:46;80.15;;;37.15;;
25846;SDS011;13676;50.168;8.568;2022-12-18T14:03:16;71.97;;;31.70;;
25846;SDS011;13676;50.168;8.568;2022-12-18T14:05:44;72.47;;;33.60;;
25846;SDS011;13676;50.168;8.568;2022-12-18T14:08:14;68.93;;;32.05;;
25846;SDS011;13676;50.168;8.568;2022-12-18T14:10:44;63.97;;;30.65;;
25846;SDS011;13676;50.168;8.568;2022-12-18T14:13:13;78.28;;;35.90;;
25846;SDS011;13676;50.168;8.568;2022-12-18T14:15:41;70.78;;;33.20;;
25846;SDS011;13676;50.168;8.568;2022-12-18T14:21:18;72.35;;;31.75;;
25846;SDS011;13676;50.168;8.568;2022-12-18T14:23:45;66.30;;;31.90;;
25846;SDS011;13676;50.168;8.568;2022-12-18T14:28:48;72.03;;;32.75;;
25846;SDS011;13676;50.168;8.568;2022-12-18T14:31:20;70.78;;;30.92;;
25846;SDS011;13676;50.168;8.568;2022-12-18T14:33:47;78.88;;;34.55;;
25846;SDS011;13676;50.168;8.568;2022-12-18T14:36:17;68.70;;;31.02;;
25846;SDS011;13676;50.168;8.568;2022-12-18T14:38:47;71.50;;;31.42;;
25846;SDS011;13676;50.168;8.568;2022-12-18T14:41:14;70.38;;;31.27;;
25846;SDS011;13676;50.168;8.568;2022-12-18T14:43:42;74.28;;;32.03;;
25846;SDS011;13676;50.168;8.568;2022-12-18T14:48:51;77.60;;;34.00;;
25846;SDS011;13676;50.168;8.568;2022-12-18T14:51:18;76.90;;;34.95;;
25846;SDS011;13676;50.168;8.568;2022-12-18T14:56:23;75.93;;;34.20;;
25846;SDS011;13676;50.168;8.568;2022-12-18T14:58:54;74.72;;;37.33;;
25846;SDS011;13676;50.168;8.568;2022-12-18T15:01:22;76.80;;;34.40;;
25846;SDS011;13676;50.168;8.568;2022-12-18T15:03:57;75.93;;;35.42;;
25846;SDS011;13676;50.168;8.568;2022-12-18T15:06:28;101.20;;;49.92;;
25846;SDS011;13676;50.168;8.568;2022-12-18T15:08:58;94.07;;;44.70;;
25846;SDS011;13676;50.168;8.568;2022-12-18T15:13:53;75.32;;;35.70;;
25846;SDS011;13676;50.168;8.568;2022-12-18T15:16:18;72.40;;;33.60;;
25846;SDS011;13676;50.168;8.568;2022-12-18T15:18:45;83.85;;;39.05;;
25846;SDS011;13676;50.168;8.568;2022-12-18T15:21:15;67.43;;;33.55;;
25846;SDS011;13676;50.168;8.568;2022-12-18T15:26:19;70.85;;;32.22;;
25846;SDS011;13676;50.168;8.568;2022-12-18T15:28:46;75.30;;;35.38;;
25846;SDS011;13676;50.168;8.568;2022-12-18T15:36:18;70.97;;;32.78;;
25846;SDS011;13676;50.168;8.568;2022-12-18T15:38:48;78.20;;;34.80;;
25846;SDS011;13676;50.168;8.568;2022-12-18T15:41:14;64.43;;;33.42;;
25846;SDS011;13676;50.168;8.568;2022-12-18T15:43:41;75.63;;;35.03;;
25846;SDS011;13676;50.168;8.568;2022-12-18T15:48:40;80.85;;;36.95;;
25846;SDS011;13676;50.168;8.568;2022-12-18T15:53:40;78.80;;;37.00;;
25846;SDS011;13676;50.168;8.568;2022-12-18T15:56:09;82.50;;;37.72;;
25846;SDS011;13676;50.168;8.568;2022-12-18T15:58:54;77.30;;;35.70;;
25846;SDS011;13676;50.168;8.568;2022-12-18T16:01:19;76.80;;;36.90;;
25846;SDS011;13676;50.168;8.568;2022-12-18T16:03:45;72.55;;;33.70;;
25846;SDS011;13676;50.168;8.568;2022-12-18T16:08:44;70.50;;;33.75;;
25846;SDS011;13676;50.168;8.568;2022-12-18T16:11:16;78.22;;;34.65;;
25846;SDS011;13676;50.168;8.568;2022-12-18T16:14:03;75.18;;;34.78;;
25846;SDS011;13676;50.168;8.568;2022-12-18T16:16:31;72.70;;;35.40;;
25846;SDS011;13676;50.168;8.568;2022-12-18T16:18:57;77.32;;;36.67;;
25846;SDS011;13676;50.168;8.568;2022-12-18T16:21:25;76.90;;;35.65;;
25846;SDS011;13676;50.168;8.568;2022-12-18T16:23:50;73.57;;;34.33;;
25846;SDS011;13676;50.168;8.568;2022-12-18T16:26:16;74.70;;;34.50;;
25846;SDS011;13676;50.168;8.568;2022-12-18T16:28:41;71.18;;;34.72;;
25846;SDS011;13676;50.168;8.568;2022-12-18T16:31:06;72.97;;;33.83;;
25846;SDS011;13676;50.168;8.568;2022-12-18T16:33:32;76.05;;;35.38;;
25846;SDS011;13676;50.168;8.568;2022-12-18T16:35:57;65.57;;;31.27;;
25846;SDS011;13676;50.168;8.568;2022-12-18T16:38:22;69.30;;;30.92;;
25846;SDS011;13676;50.168;8.568;2022-12-18T16:40:48;71.40;;;32.53;;
25846;SDS011;13676;50.168;8.568;2022-12-18T16:43:31;63.70;;;31.70;;
25846;SDS011;13676;50.168;8.568;2022-12-18T16:45:58;58.13;;;29.00;;
25846;SDS011;13676;50.168;8.568;2022-12-18T16:48:24;62.17;;;29.60;;
25846;SDS011;13676;50.168;8.568;2022-12-18T16:50:49;62.90;;;28.38;;
25846;SDS011;13676;50.168;8.568;2022-12-18T16:53:14;67.78;;;32.00;;
25846;SDS011;13676;50.168;8.568;2022-12-18T16:55:40;66.88;;;31.25;;
25846;SDS011;13676;50.168;8.568;2022-12-18T16:58:05;62.63;;;29.67;;
25846;SDS011;13676;50.168;8.568;2022-12-18T17:00:30;79.80;;;35.35;;
25846;SDS011;13676;50.168;8.568;2022-12-18T17:08:06;75.63;;;34.42;;
25846;SDS011;13676;50.168;8.568;2022-12-18T17:10:33;66.93;;;31.58;;
25846;SDS011;13676;50.168;8.568;2022-12-18T17:20:36;65.72;;;30.27;;
25846;SDS011;13676;50.168;8.568;2022-12-18T17:23:02;69.25;;;33.90;;
25846;SDS011;13676;50.168;8.568;2022-12-18T17:25:27;68.25;;;33.33;;